Time;durP1;ratioP1;P1;durP2;ratioP2;P2;SDS_P1;SDS_P2;PMS_P1;PMS_P2;Temp;Humidity;BMP_temperature;BMP_pressure;BME280_temperature;BME280_humidity;BME280_pressure;Samples;Min_cycle;Max_cycle;Signal;HPM_P1;HPM_P2
2023/08/29 00:01:53;;;;;;;3.83;0.40;;;;;;;14.47;79.62;91872.63;2068282;69;20634;-80
2023/08/29 00:04:21;;;;;;;0.65;0.30;;;;;;;14.36;79.64;91860.25;2068307;69;20139;-80
2023/08/29 00:06:50;;;;;;;2.08;0.32;;;;;;;14.43;79.85;91869.66;2068436;69;20151;-80
2023/08/29 00:09:16;;;;;;;2.85;0.30;;;;;;;14.32;80.10;91865.75;2064787;69;20218;-80
2023/08/29 00:15:29;;;;;;;0.40;0.20;;;;;;;14.30;79.45;91871.38;2067726;69;20661;-79
2023/08/29 00:22:02;;;;;;;0.10;0.10;;;;;;;14.28;78.36;91859.97;2067443;69;20558;-80
2023/08/29 00:24:28;;;;;;;0.47;0.20;;;;;;;14.33;77.79;91864.38;2064838;69;20511;-79
2023/08/29 00:26:53;;;;;;;1.15;0.30;;;;;;;14.28;78.41;91859.97;2068191;69;20137;-81
2023/08/29 00:29:19;;;;;;;3.03;0.20;;;;;;;14.27;77.81;91860.63;2068005;69;20145;-80
2023/08/29 00:35:33;;;;;;;2.50;0.20;;;;;;;14.14;78.06;91860.22;2067743;69;20256;-80
2023/08/29 00:37:59;;;;;;;0.73;0.20;;;;;;;14.21;78.15;91864.72;2067748;69;20132;-79
2023/08/29 00:40:30;;;;;;;1.35;0.20;;;;;;;14.15;77.98;91863.75;2067812;69;20140;-80
2023/08/29 00:43:00;;;;;;;2.08;0.40;;;;;;;14.17;78.25;91864.56;2068148;69;20214;-80
2023/08/29 00:45:31;;;;;;;1.00;0.40;;;;;;;14.17;78.12;91855.34;2067875;69;20145;-80
2023/08/29 00:47:59;;;;;;;0.73;0.30;;;;;;;14.17;78.25;91856.06;2064693;69;20255;-83
2023/08/29 00:50:25;;;;;;;1.95;0.28;;;;;;;14.13;79.04;91852.38;2064177;69;20149;-80
2023/08/29 00:52:54;;;;;;;1.48;0.28;;;;;;;14.19;78.88;91856.13;2067725;69;20719;-81
2023/08/29 00:55:21;;;;;;;0.77;0.30;;;;;;;14.13;79.42;91860.88;2064581;69;20575;-79
2023/08/29 00:57:47;;;;;;;2.63;0.43;;;;;;;14.07;80.02;91857.84;2067947;69;20232;-81
2023/08/29 01:00:13;;;;;;;1.13;0.35;;;;;;;14.23;77.80;91864.75;2064450;69;20527;-80
2023/08/29 01:02:40;;;;;;;2.47;0.30;;;;;;;14.08;79.60;91859.28;2067723;69;20263;-81
2023/08/29 01:05:06;;;;;;;2.67;0.40;;;;;;;14.19;78.65;91867.44;2064452;69;20675;-81
2023/08/29 01:07:32;;;;;;;0.77;0.30;;;;;;;14.14;79.13;91870.81;2064249;69;20209;-80
2023/08/29 01:09:58;;;;;;;2.60;0.20;;;;;;;14.16;78.09;91871.63;2064571;69;20213;-79
2023/08/29 01:12:37;;;;;;;0.80;0.22;;;;;;;14.12;78.68;91870.75;2064260;69;20137;-79
2023/08/29 01:15:10;;;;;;;1.13;0.10;;;;;;;14.07;77.92;91872.72;2064429;69;20589;-80
2023/08/29 01:17:46;;;;;;;1.65;0.25;;;;;;;13.99;78.38;91875.97;2064266;69;20517;-80
2023/08/29 01:20:13;;;;;;;0.22;0.22;;;;;;;14.03;77.79;91883.16;2067903;69;20240;-80
2023/08/29 01:23:00;;;;;;;0.20;0.10;;;;;;;13.95;77.99;91870.16;2064612;69;20145;-80
2023/08/29 01:25:48;;;;;;;0.10;0.10;;;;;;;13.81;76.82;91874.59;2068130;69;20172;-79
2023/08/29 01:28:14;;;;;;;0.10;0.10;;;;;;;13.87;76.39;91869.16;2064658;69;20148;-81
2023/08/29 01:30:42;;;;;;;2.40;0.20;;;;;;;13.69;77.14;91874.88;2064675;69;20672;-80
2023/08/29 01:33:10;;;;;;;0.10;0.10;;;;;;;13.76;77.28;91868.09;2064483;69;20133;-80
2023/08/29 01:35:44;;;;;;;1.23;0.40;;;;;;;13.59;77.29;91854.72;2064421;69;20182;-80
2023/08/29 01:38:09;;;;;;;0.40;0.20;;;;;;;13.77;76.88;91878.00;2067722;69;20160;-80
2023/08/29 01:40:36;;;;;;;1.52;0.10;;;;;;;13.53;75.29;91874.31;2064256;69;20132;-79
2023/08/29 01:43:02;;;;;;;0.52;0.13;;;;;;;13.51;76.55;91874.22;2064086;69;20591;-80
2023/08/29 01:45:29;;;;;;;1.25;0.10;;;;;;;13.44;76.92;91888.13;2064701;69;20159;-78
2023/08/29 01:51:43;;;;;;;0.10;0.10;;;;;;;13.56;76.59;91889.97;2068029;69;20124;-79
2023/08/29 01:54:09;;;;;;;0.15;0.10;;;;;;;13.52;76.68;91899.03;2064410;69;20574;-80
2023/08/29 01:56:39;;;;;;;0.10;0.10;;;;;;;13.55;76.39;91900.53;2067885;69;20194;-81
2023/08/29 01:59:06;;;;;;;0.80;0.17;;;;;;;13.34;77.31;91895.53;2064645;69;20148;-80
2023/08/29 02:01:33;;;;;;;1.23;0.20;;;;;;;13.47;77.17;91903.81;2068015;69;20232;-80
2023/08/29 02:03:58;;;;;;;0.22;0.10;;;;;;;13.33;77.26;91900.47;2064454;69;20228;-80
2023/08/29 02:10:13;;;;;;;0.77;0.20;;;;;;;13.47;76.72;91915.13;2067780;69;20188;-79
2023/08/29 02:12:38;;;;;;;2.08;0.20;;;;;;;13.38;76.99;91910.53;2061531;69;20152;-79
2023/08/29 02:15:06;;;;;;;0.10;0.10;;;;;;;13.27;77.64;91894.56;2063943;69;20148;-82
2023/08/29 02:17:38;;;;;;;1.75;0.17;;;;;;;13.37;77.29;91909.06;2067027;69;20157;-82
2023/08/29 02:20:08;;;;;;;0.90;0.25;;;;;;;13.31;77.92;91899.66;2067615;69;20235;-80
2023/08/29 02:22:34;;;;;;;0.45;0.40;;;;;;;13.34;77.72;91907.56;2064498;69;20240;-79
2023/08/29 02:25:02;;;;;;;4.22;0.20;;;;;;;13.40;77.52;91912.72;2064940;69;20228;-79
2023/08/29 02:27:28;;;;;;;0.20;0.10;;;;;;;13.27;78.01;91919.28;2068524;69;20645;-82
2023/08/29 02:29:53;;;;;;;0.55;0.10;;;;;;;13.31;77.39;91914.50;2068489;69;20149;-80
2023/08/29 02:32:20;;;;;;;1.42;0.10;;;;;;;13.36;77.31;91904.78;2065015;69;20164;-79
2023/08/29 02:34:45;;;;;;;0.10;0.10;;;;;;;13.31;77.14;91911.66;2068270;69;20218;-80
2023/08/29 02:37:11;;;;;;;1.15;0.30;;;;;;;13.23;77.46;91909.25;2068253;69;20188;-81
2023/08/29 02:39:37;;;;;;;1.23;0.13;;;;;;;13.19;77.43;91902.69;2067799;69;20515;-81
2023/08/29 02:42:03;;;;;;;2.55;0.15;;;;;;;13.21;77.66;91914.81;2064886;69;20648;-81
2023/08/29 02:44:28;;;;;;;2.33;0.20;;;;;;;13.28;77.12;91915.06;2064416;69;20148;-79
2023/08/29 02:46:54;;;;;;;1.90;0.15;;;;;;;13.25;77.50;91914.28;2068292;69;20145;-80
2023/08/29 02:49:20;;;;;;;0.22;0.20;;;;;;;13.17;77.56;91914.66;2068336;69;20135;-81
2023/08/29 02:51:45;;;;;;;1.42;0.20;;;;;;;13.14;77.42;91903.91;2068294;69;20149;-79
2023/08/29 02:57:58;;;;;;;1.63;0.20;;;;;;;13.18;78.01;91912.56;2068164;69;20163;-78
2023/08/29 03:00:24;;;;;;;1.45;0.20;;;;;;;13.14;77.99;91918.75;2068096;69;20307;-80
2023/08/29 03:02:49;;;;;;;1.40;0.10;;;;;;;13.18;78.03;91916.09;2068349;69;20157;-79
2023/08/29 03:09:03;;;;;;;0.65;0.10;;;;;;;13.15;77.79;91925.88;2068200;69;20143;-77
2023/08/29 03:11:28;;;;;;;1.50;0.17;;;;;;;13.20;77.69;91926.78;2068300;69;20144;-78
2023/08/29 03:13:56;;;;;;;1.27;0.40;;;;;;;13.19;78.17;91933.78;2067707;69;20144;-78
2023/08/29 03:20:11;;;;;;;1.23;0.22;;;;;;;13.03;78.84;91928.22;2068298;69;20128;-79
2023/08/29 03:26:24;;;;;;;2.08;0.30;;;;;;;13.15;78.36;91940.03;2068561;69;20178;-79
2023/08/29 03:28:50;;;;;;;1.67;0.40;;;;;;;12.97;79.17;91931.53;2064729;69;20243;-80
2023/08/29 03:31:17;;;;;;;0.50;0.30;;;;;;;13.00;78.76;91928.78;2068426;69;20545;-80
2023/08/29 03:33:46;;;;;;;1.45;0.43;;;;;;;13.07;79.42;91939.69;2068173;69;20181;-79
2023/08/29 03:36:12;;;;;;;0.80;0.20;;;;;;;12.71;76.01;91928.38;2068162;69;20244;-80
2023/08/29 03:38:39;;;;;;;1.08;0.30;;;;;;;12.80;77.59;91918.16;2068218;69;20790;-79
2023/08/29 03:41:08;;;;;;;1.20;0.28;;;;;;;12.89;77.33;91919.19;2064779;69;20203;-81
2023/08/29 03:43:35;;;;;;;1.95;0.20;;;;;;;12.88;77.10;91921.31;2067835;69;20141;-80
2023/08/29 03:46:05;;;;;;;0.32;0.15;;;;;;;12.85;76.81;91927.50;2064778;69;20213;-81
2023/08/29 03:48:31;;;;;;;0.25;0.10;;;;;;;12.86;75.34;91914.84;2067553;69;20167;-82
2023/08/29 03:50:58;;;;;;;0.55;0.10;;;;;;;12.86;76.45;91924.03;2065074;69;20133;-81
2023/08/29 03:53:24;;;;;;;2.78;0.25;;;;;;;12.78;76.97;91923.69;2068314;69;20595;-81
2023/08/29 03:55:50;;;;;;;0.65;0.10;;;;;;;12.77;76.98;91927.91;2064970;69;20160;-82
2023/08/29 03:58:16;;;;;;;1.50;0.20;;;;;;;12.77;76.76;91932.81;2065061;69;20236;-82
2023/08/29 04:00:43;;;;;;;0.80;0.28;;;;;;;12.63;77.53;91932.97;2068303;69;20256;-81
2023/08/29 04:06:56;;;;;;;3.70;0.30;;;;;;;12.71;77.32;91944.59;2068279;69;20124;-81
2023/08/29 04:09:22;;;;;;;0.68;0.22;;;;;;;12.53;77.30;91944.56;2065028;69;20172;-82
2023/08/29 04:11:47;;;;;;;0.32;0.20;;;;;;;12.71;76.67;91947.44;2067753;69;20156;-82
2023/08/29 04:14:13;;;;;;;0.20;0.10;;;;;;;12.36;76.59;91948.09;2065027;69;20553;-81
2023/08/29 04:16:38;;;;;;;0.52;0.20;;;;;;;12.43;76.33;91956.19;2064981;69;20153;-82
2023/08/29 04:19:04;;;;;;;0.10;0.10;;;;;;;12.53;76.51;91952.31;2061899;69;20132;-81
2023/08/29 04:21:30;;;;;;;1.48;0.20;;;;;;;12.58;76.46;91953.94;2064831;69;20511;-80
2023/08/29 04:23:55;;;;;;;0.20;0.20;;;;;;;12.68;76.11;91948.72;2068248;69;20152;-82
2023/08/29 04:26:21;;;;;;;0.08;0.08;;;;;;;12.64;75.82;91942.91;2064908;69;20232;-81
2023/08/29 04:28:46;;;;;;;0.45;0.10;;;;;;;12.57;76.38;91949.69;2068189;69;20159;-81
2023/08/29 04:31:12;;;;;;;0.90;0.10;;;;;;;12.62;76.71;91945.66;2068210;69;20145;-81
2023/08/29 04:33:38;;;;;;;0.13;0.10;;;;;;;12.58;76.73;91948.28;2068247;69;20152;-82
2023/08/29 04:36:04;;;;;;;0.52;0.20;;;;;;;12.60;77.07;91956.84;2065036;69;20179;-82
2023/08/29 04:38:31;;;;;;;0.20;0.20;;;;;;;12.64;76.12;91948.53;2067651;69;20587;-83
2023/08/29 04:40:57;;;;;;;0.20;0.20;;;;;;;12.60;76.25;91951.19;2068211;69;20152;-82
2023/08/29 04:47:11;;;;;;;0.80;0.10;;;;;;;12.68;76.16;91948.72;2067912;69;20613;-82
2023/08/29 04:49:36;;;;;;;0.10;0.10;;;;;;;12.53;77.73;91955.88;2064832;69;20543;-81
2023/08/29 04:52:02;;;;;;;1.02;0.30;;;;;;;12.59;77.76;91955.38;2068270;69;20168;-82
2023/08/29 04:54:29;;;;;;;0.32;0.20;;;;;;;12.71;76.88;91948.16;2064527;69;20248;-81
2023/08/29 04:56:55;;;;;;;0.73;0.20;;;;;;;12.65;77.94;91958.47;2067794;69;20152;-81
2023/08/29 05:03:08;;;;;;;1.35;0.20;;;;;;;12.80;76.49;91956.97;2068265;69;20140;-82
2023/08/29 05:05:35;;;;;;;0.50;0.30;;;;;;;12.77;77.44;91950.50;2068173;69;20137;-80
2023/08/29 05:08:03;;;;;;;0.55;0.20;;;;;;;12.77;77.23;91950.50;2064693;69;20600;-80
2023/08/29 05:10:28;;;;;;;1.73;0.40;;;;;;;12.81;77.29;91958.41;2067656;69;20144;-79
2023/08/29 05:12:54;;;;;;;0.10;0.10;;;;;;;12.86;77.57;91960.75;2068284;69;20520;-78
2023/08/29 05:15:19;;;;;;;0.88;0.28;;;;;;;12.91;77.72;91962.38;2068189;69;20155;-79
2023/08/29 05:17:46;;;;;;;1.25;0.30;;;;;;;12.94;77.33;91957.53;2067665;69;20605;-80
2023/08/29 05:20:12;;;;;;;1.50;0.30;;;;;;;12.94;77.16;91963.91;2064517;69;20250;-79
2023/08/29 05:22:38;;;;;;;0.40;0.40;;;;;;;12.95;76.22;91962.53;2067616;69;20198;-79
2023/08/29 05:25:04;;;;;;;1.27;0.63;;;;;;;12.90;77.01;91958.09;2064508;69;20663;-79
2023/08/29 05:27:29;;;;;;;0.63;0.38;;;;;;;12.90;77.27;91960.91;2068168;69;20148;-79
2023/08/29 05:29:55;;;;;;;1.45;0.55;;;;;;;12.93;77.66;91964.56;2068179;69;20145;-79
2023/08/29 05:32:20;;;;;;;0.65;0.40;;;;;;;12.96;77.31;91963.97;2068116;69;20149;-79
2023/08/29 05:34:46;;;;;;;0.40;0.30;;;;;;;12.93;77.06;91965.28;2068265;69;20584;-79
2023/08/29 05:37:12;;;;;;;0.30;0.20;;;;;;;13.02;76.37;91965.63;2068077;69;20169;-79
2023/08/29 05:43:26;;;;;;;1.40;0.40;;;;;;;13.04;76.96;91954.38;2068150;69;20124;-79
2023/08/29 05:45:54;;;;;;;0.52;0.30;;;;;;;13.09;77.65;91964.47;2068149;69;20257;-81
2023/08/29 05:48:20;;;;;;;1.20;0.40;;;;;;;13.10;76.89;91963.09;2068076;69;20201;-79
2023/08/29 05:50:49;;;;;;;1.58;0.40;;;;;;;13.13;77.73;91962.53;2067903;69;20145;-80
2023/08/29 05:53:15;;;;;;;3.63;0.45;;;;;;;13.16;77.94;91955.59;2064685;69;20260;-80
2023/08/29 05:55:41;;;;;;;2.78;0.40;;;;;;;13.23;77.74;91962.22;2068133;69;20218;-80
2023/08/29 05:58:07;;;;;;;0.88;0.30;;;;;;;13.23;78.20;91965.06;2068497;69;20156;-80
2023/08/29 06:00:33;;;;;;;3.63;0.25;;;;;;;13.27;78.20;91970.88;2068545;69;20244;-81
2023/08/29 06:03:00;;;;;;;0.52;0.22;;;;;;;13.37;78.27;91973.34;2068530;69;20236;-81
2023/08/29 06:05:26;;;;;;;4.03;0.40;;;;;;;13.38;77.08;91980.50;2068612;69;20148;-80
2023/08/29 06:07:52;;;;;;;1.77;0.40;;;;;;;13.43;76.37;91993.41;2068397;69;20247;-80
2023/08/29 06:10:18;;;;;;;1.48;0.90;;;;;;;13.00;76.89;91991.66;2068529;69;20267;-80
2023/08/29 06:12:44;;;;;;;1.55;0.80;;;;;;;13.24;76.27;91994.78;2065271;69;20151;-80
2023/08/29 06:15:09;;;;;;;2.75;0.77;;;;;;;13.29;76.15;91995.69;2068531;69;20141;-80
2023/08/29 06:17:35;;;;;;;0.50;0.50;;;;;;;13.28;77.18;92000.56;2068458;69;20128;-80
2023/08/29 06:20:01;;;;;;;1.42;0.50;;;;;;;13.41;77.32;91987.66;2068537;69;20145;-81
2023/08/29 06:22:26;;;;;;;0.80;0.70;;;;;;;13.44;77.63;91989.91;2065105;69;20149;-83
2023/08/29 06:24:52;;;;;;;3.70;1.00;;;;;;;13.45;77.55;91996.28;2068531;69;20168;-82
2023/08/29 06:27:17;;;;;;;2.15;1.10;;;;;;;13.44;77.62;92001.22;2069081;69;20660;-81
2023/08/29 06:29:43;;;;;;;2.95;1.08;;;;;;;13.50;77.22;92000.00;2070817;69;20199;-81
2023/08/29 06:32:09;;;;;;;2.63;1.75;;;;;;;13.57;75.12;91999.59;2069434;69;20639;-82
2023/08/29 06:34:34;;;;;;;2.65;1.70;;;;;;;13.60;76.24;92006.78;2069163;69;20152;-82
2023/08/29 06:37:00;;;;;;;2.72;1.40;;;;;;;13.43;75.23;92008.25;2068456;69;20575;-82
2023/08/29 06:39:26;;;;;;;1.88;1.30;;;;;;;13.51;75.20;92013.50;2068711;69;20147;-82
2023/08/29 06:41:51;;;;;;;1.63;1.10;;;;;;;13.59;74.65;92010.97;2068470;69;20135;-80
2023/08/29 06:44:17;;;;;;;4.97;0.88;;;;;;;13.60;74.25;92008.88;2068061;69;20185;-80
2023/08/29 06:46:43;;;;;;;1.08;0.60;;;;;;;13.60;74.21;92020.19;2068498;69;20144;-80
2023/08/29 06:49:08;;;;;;;2.13;0.75;;;;;;;13.79;73.65;92013.13;2068336;69;20144;-82
2023/08/29 06:51:34;;;;;;;2.70;2.30;;;;;;;13.56;73.34;92014.38;2068398;69;20152;-81
2023/08/29 06:54:00;;;;;;;0.85;0.63;;;;;;;13.31;73.23;92010.59;2068533;69;20188;-81
2023/08/29 06:56:26;;;;;;;1.67;0.70;;;;;;;13.98;72.28;92012.47;2068423;69;20192;-80
2023/08/29 06:58:51;;;;;;;2.53;1.08;;;;;;;14.12;71.69;92015.81;2068256;69;20630;-80
2023/08/29 07:01:17;;;;;;;4.18;0.50;;;;;;;14.27;70.57;92017.03;2068377;69;20156;-83
2023/08/29 07:03:42;;;;;;;0.60;0.60;;;;;;;14.47;70.48;92017.03;2068416;69;20195;-83
2023/08/29 07:06:08;;;;;;;0.70;0.50;;;;;;;14.68;70.18;92021.34;2065398;69;20151;-82
2023/08/29 07:08:34;;;;;;;3.35;1.10;;;;;;;14.88;69.78;92015.66;2068271;69;20179;-82
2023/08/29 07:10:59;;;;;;;2.90;1.95;;;;;;;14.46;71.09;92007.81;2068501;69;20140;-81
2023/08/29 07:13:25;;;;;;;2.25;2.05;;;;;;;14.77;68.39;92003.25;2068624;69;20160;-83
2023/08/29 07:15:50;;;;;;;2.15;1.60;;;;;;;15.03;68.92;91997.00;2068396;69;20552;-82
2023/08/29 07:18:20;;;;;;;2.00;1.70;;;;;;;14.97;68.27;92006.75;2065081;69;20508;-83
2023/08/29 07:20:48;;;;;;;1.88;0.80;;;;;;;14.40;69.03;91992.72;2068400;69;20183;-82
2023/08/29 07:23:15;;;;;;;1.27;0.50;;;;;;;13.70;69.51;91984.56;2068314;69;20188;-85
2023/08/29 07:25:43;;;;;;;1.50;0.40;;;;;;;14.72;67.80;92001.66;2065040;69;20149;-81
2023/08/29 07:28:13;;;;;;;1.17;0.60;;;;;;;15.20;66.96;91996.88;2068375;69;20148;-80
2023/08/29 07:30:45;;;;;;;2.70;0.90;;;;;;;15.33;68.77;92009.34;2062327;69;20148;-80
2023/08/29 07:33:11;;;;;;;3.00;0.80;;;;;;;15.33;70.54;91989.50;2068436;69;20607;-81
2023/08/29 07:35:38;;;;;;;1.52;1.00;;;;;;;15.12;73.13;92005.13;2068448;69;20231;-80
2023/08/29 07:38:04;;;;;;;1.85;1.00;;;;;;;15.02;73.02;92004.78;2068308;69;20214;-80
2023/08/29 07:40:33;;;;;;;1.15;0.98;;;;;;;15.11;72.99;92008.63;2068247;69;20161;-80
2023/08/29 07:43:04;;;;;;;1.10;1.00;;;;;;;15.23;72.70;92009.75;2068233;69;20143;-80
2023/08/29 07:45:31;;;;;;;1.52;1.13;;;;;;;15.20;73.41;92004.66;2068223;69;20144;-81
2023/08/29 07:47:57;;;;;;;0.77;0.70;;;;;;;15.29;72.88;92008.50;2068303;69;20235;-82
2023/08/29 07:50:23;;;;;;;1.80;0.80;;;;;;;15.32;72.17;92012.84;2068272;69;20512;-81
2023/08/29 07:52:49;;;;;;;4.25;0.90;;;;;;;15.19;73.66;92003.94;2068477;69;20153;-82
2023/08/29 07:55:14;;;;;;;1.13;0.70;;;;;;;15.38;72.42;92013.75;2068529;69;20137;-80
2023/08/29 07:57:40;;;;;;;1.45;1.00;;;;;;;15.48;71.38;91999.91;2068375;69;20150;-79
2023/08/29 08:00:09;;;;;;;1.00;0.80;;;;;;;15.52;71.05;92002.84;2068427;69;20172;-81
2023/08/29 08:02:38;;;;;;;1.83;0.60;;;;;;;15.63;71.01;92006.03;2068305;69;20133;-80
2023/08/29 08:05:10;;;;;;;1.15;0.57;;;;;;;15.70;70.07;91999.16;2068515;69;20600;-80
2023/08/29 08:07:36;;;;;;;1.08;0.50;;;;;;;15.74;69.06;92008.53;2068235;69;20619;-82
2023/08/29 08:10:04;;;;;;;0.88;0.40;;;;;;;15.85;69.17;92006.75;2065065;69;20524;-81
2023/08/29 08:12:31;;;;;;;2.10;0.57;;;;;;;15.80;69.72;92013.66;2065104;69;20669;-80
2023/08/29 08:14:57;;;;;;;0.47;0.40;;;;;;;15.80;69.78;92022.19;2068499;69;20156;-79
2023/08/29 08:17:24;;;;;;;1.13;0.40;;;;;;;15.83;69.84;92020.88;2068222;69;20156;-81
2023/08/29 08:23:44;;;;;;;0.40;0.40;;;;;;;15.42;71.10;92033.75;2067712;69;20581;-82
2023/08/29 08:26:12;;;;;;;2.58;0.50;;;;;;;15.58;72.21;92030.72;2068363;69;20140;-81
2023/08/29 08:28:37;;;;;;;7.43;0.70;;;;;;;15.74;70.60;92036.19;2068155;69;20152;-82
2023/08/29 08:31:05;;;;;;;1.73;0.40;;;;;;;15.52;72.22;92036.91;2064756;69;20565;-83
2023/08/29 08:33:30;;;;;;;3.55;0.90;;;;;;;15.73;72.39;92034.75;2068191;69;20559;-78
2023/08/29 08:35:56;;;;;;;2.85;0.70;;;;;;;15.78;72.02;92029.91;2068256;69;20592;-83
2023/08/29 08:38:21;;;;;;;1.85;0.40;;;;;;;15.56;73.01;92032.75;2068245;69;20156;-80
2023/08/29 08:40:47;;;;;;;0.68;0.60;;;;;;;15.80;72.18;92042.03;2068389;69;20143;-81
2023/08/29 08:43:13;;;;;;;1.10;0.57;;;;;;;15.90;70.42;92045.22;2068291;69;20322;-80
2023/08/29 08:45:40;;;;;;;0.65;0.60;;;;;;;15.92;72.38;92045.25;2068135;69;20292;-79
2023/08/29 08:48:06;;;;;;;0.63;0.60;;;;;;;16.03;71.68;92054.81;2064495;69;20143;-81
2023/08/29 08:50:32;;;;;;;1.02;0.50;;;;;;;16.16;71.88;92041.72;2068470;69;20133;-79
2023/08/29 08:53:00;;;;;;;2.45;0.60;;;;;;;16.17;72.27;92049.56;2068112;69;20133;-78
2023/08/29 08:55:26;;;;;;;1.42;0.55;;;;;;;16.17;72.34;92055.25;2068208;69;20140;-80
2023/08/29 08:57:52;;;;;;;0.93;0.43;;;;;;;16.21;72.06;92054.63;2067609;69;20287;-79
2023/08/29 09:00:22;;;;;;;0.90;0.50;;;;;;;16.47;71.62;92054.69;2067992;69;20733;-79
2023/08/29 09:02:48;;;;;;;1.13;0.77;;;;;;;16.57;71.26;92063.50;2068264;69;20136;-79
2023/08/29 09:05:14;;;;;;;0.88;0.70;;;;;;;16.51;70.23;92069.72;2064981;69;20251;-83
2023/08/29 09:07:40;;;;;;;2.92;0.68;;;;;;;16.52;70.93;92076.13;2068151;69;20141;-80
2023/08/29 09:10:08;;;;;;;2.40;0.63;;;;;;;16.39;71.82;92068.66;2068150;69;20164;-78
2023/08/29 09:12:34;;;;;;;1.13;0.70;;;;;;;16.23;72.27;92071.75;2068209;69;20132;-82
2023/08/29 09:15:04;;;;;;;0.63;0.52;;;;;;;16.45;71.23;92075.25;2068245;69;20151;-78
2023/08/29 09:17:30;;;;;;;0.45;0.45;;;;;;;16.50;70.92;92082.50;2068247;69;20137;-81
2023/08/29 09:19:59;;;;;;;1.08;0.52;;;;;;;16.43;70.64;92082.97;2068226;69;20156;-79
2023/08/29 09:22:26;;;;;;;0.80;0.43;;;;;;;16.55;70.53;92079.78;2068044;69;20156;-80
2023/08/29 09:24:52;;;;;;;1.33;0.50;;;;;;;16.38;71.32;92079.28;2068057;69;20198;-80
2023/08/29 09:27:17;;;;;;;1.40;0.40;;;;;;;16.71;70.77;92072.41;2068150;69;20156;-81
2023/08/29 09:29:43;;;;;;;0.75;0.40;;;;;;;16.49;71.85;92080.31;2068112;69;20258;-81
2023/08/29 09:35:56;;;;;;;0.77;0.50;;;;;;;16.83;71.28;92077.75;2068246;69;20282;-81
2023/08/29 09:38:27;;;;;;;0.52;0.52;;;;;;;17.08;69.31;92079.13;2068208;69;20673;-78
2023/08/29 09:40:55;;;;;;;1.08;0.60;;;;;;;17.25;69.10;92081.00;2068091;69;20168;-80
2023/08/29 09:43:21;;;;;;;1.05;0.50;;;;;;;17.22;68.47;92073.81;2068156;69;20149;-82
2023/08/29 09:45:53;;;;;;;0.60;0.60;;;;;;;17.34;68.82;92081.97;2068116;69;20171;-81
2023/08/29 09:48:19;;;;;;;2.70;0.60;;;;;;;17.37;68.04;92068.53;2064765;69;20160;-80
2023/08/29 09:50:46;;;;;;;1.02;0.70;;;;;;;17.72;66.27;92073.66;2068060;69;20687;-83
2023/08/29 09:53:14;;;;;;;1.50;0.80;;;;;;;17.45;62.49;92072.28;2068111;69;20148;-83
2023/08/29 09:55:43;;;;;;;1.33;0.50;;;;;;;16.74;62.01;92067.56;2067924;69;20649;-83
2023/08/29 09:58:10;;;;;;;0.70;0.50;;;;;;;17.03;60.24;92064.09;2068043;69;20281;-79
2023/08/29 10:00:41;;;;;;;1.00;0.52;;;;;;;16.94;59.90;92058.84;2068493;69;20222;-81
2023/08/29 10:03:08;;;;;;;1.80;0.30;;;;;;;16.99;60.38;92057.56;2065120;69;20149;-81
2023/08/29 10:05:36;;;;;;;0.55;0.55;;;;;;;17.14;59.97;92053.00;2068238;69;20156;-81
2023/08/29 10:08:13;;;;;;;0.40;0.40;;;;;;;17.43;59.52;92058.00;2064646;69;20224;-77
2023/08/29 10:10:43;;;;;;;0.60;0.50;;;;;;;17.45;59.45;92054.47;2068169;69;20203;-78
2023/08/29 10:16:58;;;;;;;0.50;0.50;;;;;;;17.04;60.39;92067.66;2068058;69;20191;-80
2023/08/29 10:19:26;;;;;;;0.55;0.50;;;;;;;17.24;59.52;92065.34;2067997;69;20266;-79
2023/08/29 10:21:53;;;;;;;0.85;0.70;;;;;;;17.16;64.91;92070.09;2068003;69;20144;-82
2023/08/29 10:24:21;;;;;;;4.97;0.70;;;;;;;17.19;66.43;92063.06;2067800;69;20175;-84
2023/08/29 10:26:49;;;;;;;1.38;0.68;;;;;;;17.26;65.48;92064.66;2068033;69;20133;-78
2023/08/29 10:29:16;;;;;;;0.90;0.50;;;;;;;17.16;63.20;92061.56;2067986;69;20199;-80
2023/08/29 10:31:44;;;;;;;1.88;0.80;;;;;;;17.17;66.47;92060.88;2067966;69;20589;-80
2023/08/29 10:34:10;;;;;;;1.10;0.50;;;;;;;17.16;68.18;92061.56;2067981;69;20623;-79
2023/08/29 10:36:39;;;;;;;0.70;0.50;;;;;;;17.36;67.40;92064.94;2068004;69;20141;-81
2023/08/29 10:39:09;;;;;;;0.60;0.32;;;;;;;17.35;66.45;92057.06;2068135;69;20172;-80
2023/08/29 10:41:47;;;;;;;0.40;0.40;;;;;;;17.40;66.11;92058.63;2068150;69;20156;-77
2023/08/29 10:44:31;;;;;;;0.45;0.40;;;;;;;17.62;65.91;92058.47;2065136;69;20161;-77
2023/08/29 10:47:30;;;;;;;0.30;0.30;;;;;;;17.64;64.37;92059.25;2068437;69;20145;-78
2023/08/29 10:50:07;;;;;;;1.65;0.47;;;;;;;17.79;63.93;92054.66;2068541;69;20543;-77
2023/08/29 10:52:42;;;;;;;0.43;0.40;;;;;;;17.73;64.27;92058.06;2068608;69;20255;-80
2023/08/29 10:55:27;;;;;;;0.68;0.40;;;;;;;17.57;65.93;92054.06;2065043;69;20188;-79
2023/08/29 10:57:53;;;;;;;0.40;0.35;;;;;;;17.53;66.28;92052.56;2068375;69;20216;-85
2023/08/29 11:00:41;;;;;;;0.40;0.40;;;;;;;17.49;66.72;92054.59;2068422;69;20158;-80
2023/08/29 11:03:08;;;;;;;0.35;0.30;;;;;;;17.47;65.91;92051.69;2068385;69;20140;-81
2023/08/29 11:05:40;;;;;;;0.30;0.30;;;;;;;17.54;65.85;92056.84;2068370;69;20149;-80
2023/08/29 11:08:21;;;;;;;0.90;0.32;;;;;;;17.59;65.97;92056.97;2064971;69;20584;-81
2023/08/29 11:11:12;;;;;;;0.65;0.30;;;;;;;17.40;66.04;92050.09;2068460;69;20619;-79
2023/08/29 11:13:57;;;;;;;0.85;0.30;;;;;;;17.15;66.81;92045.91;2068417;69;20141;-80
2023/08/29 11:16:23;;;;;;;2.20;0.30;;;;;;;17.27;64.82;92043.34;2068358;69;20201;-79
2023/08/29 11:18:59;;;;;;;0.40;0.40;;;;;;;17.31;63.05;92042.75;2068517;69;20184;-81
2023/08/29 11:21:24;;;;;;;0.30;0.30;;;;;;;17.17;65.89;92040.25;2068361;69;20172;-82
2023/08/29 11:23:50;;;;;;;0.57;0.20;;;;;;;17.26;65.76;92031.25;2062206;69;20608;-80
2023/08/29 11:26:16;;;;;;;0.90;0.40;;;;;;;17.23;66.34;92035.47;2068487;69;20156;-81
2023/08/29 11:28:44;;;;;;;0.30;0.20;;;;;;;17.39;64.80;92031.56;2068262;69;20504;-80
2023/08/29 11:31:12;;;;;;;0.80;0.40;;;;;;;17.34;67.85;92032.88;2068148;69;20157;-80
2023/08/29 11:33:38;;;;;;;0.45;0.30;;;;;;;17.44;67.10;92030.28;2068480;69;20157;-83
2023/08/29 11:36:07;;;;;;;0.40;0.40;;;;;;;17.46;66.49;92033.19;2067770;69;20160;-80
2023/08/29 11:38:33;;;;;;;0.40;0.30;;;;;;;17.43;66.91;92026.72;2064594;69;20229;-78
2023/08/29 11:41:04;;;;;;;0.98;0.60;;;;;;;17.46;67.13;92027.50;2068500;69;20628;-80
2023/08/29 11:43:34;;;;;;;0.82;0.40;;;;;;;17.70;66.97;92030.19;2065183;69;20129;-81
2023/08/29 11:46:06;;;;;;;1.65;0.45;;;;;;;17.78;66.82;92028.31;2068103;69;20168;-81
2023/08/29 11:48:34;;;;;;;0.68;0.40;;;;;;;17.81;67.37;92022.66;2068093;69;20156;-79
2023/08/29 11:51:04;;;;;;;0.95;0.47;;;;;;;17.98;66.60;92027.31;2068366;69;20145;-80
2023/08/29 11:53:32;;;;;;;0.40;0.40;;;;;;;17.78;68.05;92025.47;2068319;69;20141;-78
2023/08/29 11:55:59;;;;;;;1.75;0.50;;;;;;;18.04;67.15;92011.06;2068532;69;20145;-81
2023/08/29 11:58:33;;;;;;;1.58;0.50;;;;;;;18.23;66.22;92009.34;2068342;69;20199;-84
2023/08/29 12:01:07;;;;;;;1.65;0.50;;;;;;;18.11;65.63;92014.06;2068261;69;20149;-85
2023/08/29 12:03:37;;;;;;;0.57;0.50;;;;;;;17.97;66.84;92018.06;2068361;69;20154;-83
2023/08/29 12:06:05;;;;;;;0.60;0.50;;;;;;;17.85;67.10;92026.31;2068364;69;20202;-83
2023/08/29 12:08:38;;;;;;;4.07;0.47;;;;;;;17.97;67.14;92026.59;2068184;69;20228;-80
2023/08/29 12:11:06;;;;;;;0.63;0.57;;;;;;;18.06;66.52;92026.78;2067786;69;20168;-80
2023/08/29 12:13:34;;;;;;;0.55;0.40;;;;;;;17.98;65.56;92030.16;2068282;69;20259;-81
2023/08/29 12:16:00;;;;;;;1.38;0.40;;;;;;;18.03;64.77;92028.84;2068262;69;20147;-81
2023/08/29 12:18:25;;;;;;;0.38;0.30;;;;;;;17.91;65.59;92026.44;2068479;69;20148;-81
2023/08/29 12:21:08;;;;;;;0.63;0.47;;;;;;;17.83;64.96;92031.25;2068373;69;20156;-84
2023/08/29 12:23:33;;;;;;;0.45;0.40;;;;;;;17.95;65.13;92031.50;2068197;69;20183;-82
2023/08/29 12:25:59;;;;;;;0.30;0.30;;;;;;;17.93;64.62;92035.03;2068215;69;20164;-79
2023/08/29 12:28:26;;;;;;;0.40;0.40;;;;;;;17.91;64.80;92043.53;2064698;69;20584;-79
2023/08/29 12:30:54;;;;;;;2.20;0.40;;;;;;;17.83;65.20;92028.41;2068477;69;20613;-78
2023/08/29 12:33:21;;;;;;;1.23;0.40;;;;;;;17.87;64.90;92037.00;2068531;69;20152;-81
2023/08/29 12:35:47;;;;;;;0.43;0.43;;;;;;;17.80;65.33;92030.47;2068359;69;20164;-80
2023/08/29 12:38:13;;;;;;;2.67;0.40;;;;;;;17.73;65.13;92035.31;2068190;69;20156;-80